createdAt,value
2023-03-15T00:01:16.502Z,99059.25
2023-03-15T00:05:23.187Z,99049.03
2023-03-15T00:09:34.661Z,99055.41
2023-03-15T00:13:38.451Z,99036.31
2023-03-15T00:17:45.164Z,99036.47
2023-03-15T00:21:48.824Z,99036.75
2023-03-15T00:25:55.503Z,99033.66
2023-03-15T00:29:59.165Z,99044.34
2023-03-15T00:34:02.591Z,99055.38
2023-03-15T00:38:06.129Z,99067.78
2023-03-15T00:42:14.039Z,99064.66
2023-03-15T00:46:17.887Z,99064.72
2023-03-15T00:50:21.428Z,99068.31
2023-03-15T00:54:25.086Z,99059.03
2023-03-15T00:58:30.171Z,99036.09
2023-03-15T01:02:32.952Z,99077.81
2023-03-15T01:06:36.004Z,99076.09
2023-03-15T01:10:39.406Z,99082.72
2023-03-15T01:14:44.622Z,99093.03
2023-03-15T01:18:47.686Z,99102.69
2023-03-15T01:22:51.500Z,99111.38
2023-03-15T01:26:54.923Z,99122.88
2023-03-15T01:31:00.239Z,99123.91
2023-03-15T01:35:03.164Z,99129.00
2023-03-15T01:39:06.574Z,99129.34
2023-03-15T01:43:19.502Z,99133.69
2023-03-15T01:47:26.265Z,99139.03
2023-03-15T01:51:33.968Z,99138.75
2023-03-15T01:55:37.115Z,99133.22
2023-03-15T01:59:42.557Z,99123.63
2023-03-15T02:03:48.396Z,99117.69
2023-03-15T02:07:54.736Z,99130.00
2023-03-15T02:11:59.038Z,99136.78
2023-03-15T02:16:02.555Z,99126.66
2023-03-15T02:20:15.678Z,99123.28
2023-03-15T02:24:28.116Z,99136.28
2023-03-15T02:28:32.393Z,99122.72
2023-03-15T02:32:35.763Z,99131.88
2023-03-15T02:36:38.808Z,99134.28
2023-03-15T02:40:42.581Z,99148.56
2023-03-15T02:44:47.553Z,99148.56
2023-03-15T02:48:54.232Z,99157.81
2023-03-15T02:52:57.511Z,99159.03
2023-03-15T02:57:01.028Z,99158.06
2023-03-15T03:01:05.686Z,99151.03
2023-03-15T03:05:09.160Z,99149.25
2023-03-15T03:09:12.581Z,99147.50
2023-03-15T03:13:16.336Z,99156.41
2023-03-15T03:17:21.018Z,99154.34
2023-03-15T03:21:24.147Z,99159.09
2023-03-15T03:25:27.353Z,99166.34
2023-03-15T03:29:30.957Z,99148.28
2023-03-15T03:33:35.376Z,99175.59
2023-03-15T03:37:39.240Z,99168.78
2023-03-15T03:41:43.088Z,99182.72
2023-03-15T03:45:46.468Z,99176.19
2023-03-15T03:49:50.684Z,99177.25
2023-03-15T03:53:54.426Z,99186.75
2023-03-15T03:57:57.922Z,99184.75
2023-03-15T04:02:03.581Z,99178.41
2023-03-15T04:06:10.972Z,99188.44
2023-03-15T04:10:14.928Z,99190.50
2023-03-15T04:14:18.488Z,99207.34
2023-03-15T04:18:22.553Z,99212.63
2023-03-15T04:22:27.797Z,99214.84
2023-03-15T04:26:35.129Z,99213.16
2023-03-15T04:30:39.907Z,99214.16
2023-03-15T04:34:44.282Z,99212.38
2023-03-15T04:39:03.533Z,99202.94
2023-03-15T04:43:08.019Z,99205.25
2023-03-15T04:47:14.754Z,99202.50
2023-03-15T04:51:21.341Z,99209.41
2023-03-15T04:55:36.451Z,99199.34
2023-03-15T04:59:41.337Z,99211.50
2023-03-15T05:03:45.836Z,99216.97
2023-03-15T05:07:50.139Z,99212.50
2023-03-15T05:12:03.158Z,99223.72
2023-03-15T05:16:10.030Z,99225.78
2023-03-15T05:20:18.370Z,99231.06
2023-03-15T05:24:22.394Z,99234.47
2023-03-15T05:28:33.220Z,99245.19
2023-03-15T05:32:39.908Z,99226.81
2023-03-15T05:36:43.659Z,99227.75
2023-03-15T05:40:48.317Z,99241.47
2023-03-15T05:44:53.645Z,99256.34
2023-03-15T05:48:56.375Z,99259.59
2023-03-15T05:52:59.986Z,99268.75
2023-03-15T05:57:03.231Z,99291.03
2023-03-15T06:01:10.084Z,99289.56
2023-03-15T06:05:27.020Z,99295.09
2023-03-15T06:09:31.921Z,99284.00
2023-03-15T06:13:36.090Z,99281.91
2023-03-15T06:17:47.054Z,99279.91
2023-03-15T06:21:54.230Z,99274.97
2023-03-15T06:26:02.882Z,99281.72
2023-03-15T06:30:13.238Z,99281.16
2023-03-15T06:34:29.941Z,99273.72
2023-03-15T06:38:32.975Z,99255.72
2023-03-15T06:42:51.703Z,99270.66
2023-03-15T06:46:58.861Z,99290.66
2023-03-15T06:51:20.493Z,99281.13
2023-03-15T06:55:32.103Z,99276.84
2023-03-15T06:59:36.006Z,99267.22
2023-03-15T07:03:38.859Z,99280.25
2023-03-15T07:07:43.137Z,99287.63
2023-03-15T07:11:46.958Z,99282.91
2023-03-15T07:15:53.655Z,99284.94
2023-03-15T07:19:57.237Z,99281.91
2023-03-15T07:24:07.157Z,99281.91
2023-03-15T07:28:09.871Z,99274.47
2023-03-15T07:32:12.645Z,99311.13
2023-03-15T07:36:15.520Z,99311.97
2023-03-15T07:40:21.234Z,99309.25
2023-03-15T07:44:25.842Z,99309.31
2023-03-15T07:48:29.386Z,99314.72
2023-03-15T07:52:32.190Z,99325.91
2023-03-15T07:56:36.384Z,99323.38
2023-03-15T08:00:40.037Z,99324.78
2023-03-15T08:04:43.337Z,99331.88
2023-03-15T08:08:46.704Z,99343.41
2023-03-15T08:12:52.814Z,99341.00
2023-03-15T08:16:58.277Z,99332.06
2023-03-15T08:21:01.519Z,99352.59
2023-03-15T08:25:04.333Z,99357.34
2023-03-15T08:29:11.464Z,99353.63
2023-03-15T08:33:14.218Z,99352.97
2023-03-15T08:37:16.951Z,99356.00
2023-03-15T08:41:20.944Z,99366.47
2023-03-15T08:45:27.205Z,99375.22
2023-03-15T08:49:30.089Z,99390.03
2023-03-15T08:53:33.351Z,99394.19
2023-03-15T08:57:41.023Z,99383.84
2023-03-15T09:01:47.407Z,99380.03
2023-03-15T09:05:50.564Z,99384.84
2023-03-15T09:09:55.339Z,99375.44
2023-03-15T09:13:57.976Z,99380.94
2023-03-15T09:18:05.035Z,99389.56
2023-03-15T09:22:16.770Z,99399.72
2023-03-15T09:26:26.578Z,99410.16
2023-03-15T09:30:32.832Z,99422.59
2023-03-15T09:34:42.769Z,99414.00
2023-03-15T09:38:48.257Z,99421.19
2023-03-15T09:43:05.849Z,99393.59
2023-03-15T09:47:22.510Z,99409.09
2023-03-15T09:51:32.290Z,99431.16
2023-03-15T09:55:35.090Z,99435.47
2023-03-15T09:59:43.951Z,99430.28
2023-03-15T10:03:49.725Z,99417.66
2023-03-15T10:07:56.588Z,99442.59
2023-03-15T10:12:04.972Z,99448.09
2023-03-15T10:16:15.813Z,99450.75
2023-03-15T10:20:19.954Z,99450.06
2023-03-15T10:24:32.163Z,99444.88
2023-03-15T10:28:37.616Z,99447.75
2023-03-15T10:32:43.532Z,99440.44
2023-03-15T10:36:55.119Z,99438.00
2023-03-15T10:41:00.295Z,99433.88
2023-03-15T10:45:21.795Z,99445.53
2023-03-15T10:49:35.454Z,99437.13
2023-03-15T10:54:02.204Z,99438.56
2023-03-15T10:58:25.897Z,99438.03
2023-03-15T11:02:29.595Z,99430.56
2023-03-15T11:06:44.973Z,99435.81
2023-03-15T11:10:50.256Z,99434.69
2023-03-15T11:15:00.526Z,99442.66
2023-03-15T11:19:13.070Z,99437.84
2023-03-15T11:23:23.019Z,99454.03
2023-03-15T11:27:30.338Z,99461.28
2023-03-15T11:31:36.637Z,99463.41
2023-03-15T11:35:48.444Z,99464.09
2023-03-15T11:40:10.366Z,99471.16
2023-03-15T11:44:29.171Z,99476.19
2023-03-15T11:48:42.317Z,99481.78
2023-03-15T11:52:53.957Z,99479.94
2023-03-15T11:57:09.685Z,99473.50
2023-03-15T12:01:28.386Z,99474.09
2023-03-15T12:05:57.865Z,99475.78
2023-03-15T12:10:46.709Z,99480.81
2023-03-15T12:14:58.448Z,99491.31
2023-03-15T12:19:16.733Z,99494.09
2023-03-15T12:23:25.562Z,99487.88
2023-03-15T12:27:35.252Z,99488.59
2023-03-15T12:31:48.724Z,99484.25
2023-03-15T12:35:57.088Z,99484.06
2023-03-15T12:40:39.468Z,99478.97
2023-03-15T12:44:50.245Z,99469.72
2023-03-15T12:49:08.769Z,99481.00
2023-03-15T12:53:37.559Z,99468.16
2023-03-15T12:57:53.429Z,99468.13
2023-03-15T13:01:57.438Z,99458.63
2023-03-15T13:06:17.619Z,99458.47
2023-03-15T13:10:51.117Z,99457.00
2023-03-15T13:14:59.994Z,99451.47
2023-03-15T13:19:19.711Z,99441.91
2023-03-15T13:23:26.276Z,99433.22
2023-03-15T13:27:41.081Z,99448.78
2023-03-15T13:31:51.619Z,99442.06
2023-03-15T13:36:01.351Z,99435.59
2023-03-15T13:40:12.549Z,99452.22
2023-03-15T13:44:19.862Z,99436.00
2023-03-15T13:48:28.256Z,99454.56
2023-03-15T13:52:35.920Z,99440.69
2023-03-15T13:56:49.805Z,99437.88
2023-03-15T14:01:01.288Z,99428.19
2023-03-15T14:05:09.263Z,99443.19
2023-03-15T14:09:19.532Z,99444.66
2023-03-15T14:13:29.648Z,99459.94
2023-03-15T14:17:33.632Z,99456.91
2023-03-15T14:21:38.885Z,99450.25
2023-03-15T14:25:49.981Z,99460.72
2023-03-15T14:29:55.099Z,99467.09
2023-03-15T14:34:01.226Z,99468.28
2023-03-15T14:38:10.415Z,99475.31
2023-03-15T14:42:14.725Z,99475.94
2023-03-15T14:46:19.073Z,99477.03
2023-03-15T14:50:27.015Z,99486.91
2023-03-15T14:54:32.683Z,99485.06
2023-03-15T14:58:38.978Z,99495.56
2023-03-15T15:02:45.021Z,99495.50
2023-03-15T15:06:55.507Z,99513.34
2023-03-15T15:11:01.184Z,99509.09
2023-03-15T15:15:14.035Z,99511.09
2023-03-15T15:19:19.179Z,99509.25
2023-03-15T15:23:25.063Z,99518.63
2023-03-15T15:27:33.209Z,99499.69
2023-03-15T15:31:37.745Z,99487.00
2023-03-15T15:35:43.992Z,99493.59
2023-03-15T15:39:47.908Z,99484.56
2023-03-15T15:43:52.495Z,99483.78
2023-03-15T15:47:56.398Z,99485.72
2023-03-15T15:51:59.868Z,99483.78
2023-03-15T15:56:03.833Z,99480.31
2023-03-15T16:00:15.300Z,99479.88
2023-03-15T16:04:22.978Z,99479.00
2023-03-15T16:08:31.060Z,99475.28
2023-03-15T16:12:35.237Z,99473.69
2023-03-15T16:16:42.006Z,99473.44
2023-03-15T16:20:48.280Z,99479.75
2023-03-15T16:24:55.821Z,99472.47
2023-03-15T16:28:59.316Z,99484.88
2023-03-15T16:33:04.244Z,99482.91
2023-03-15T16:37:11.365Z,99480.38
2023-03-15T16:41:19.005Z,99491.31
2023-03-15T16:45:26.290Z,99489.00
2023-03-15T16:49:32.327Z,99492.03
2023-03-15T16:53:37.657Z,99494.09
2023-03-15T16:57:42.385Z,99492.69
2023-03-15T17:01:52.484Z,99490.38
2023-03-15T17:05:58.883Z,99489.25
2023-03-15T17:10:17.076Z,99486.28
2023-03-15T17:14:31.250Z,99486.34
2023-03-15T17:18:36.768Z,99495.44
2023-03-15T17:22:43.644Z,99491.22
2023-03-15T17:26:48.443Z,99500.91
2023-03-15T17:31:08.899Z,99504.31
2023-03-15T17:35:20.073Z,99505.91
2023-03-15T17:39:25.071Z,99517.59
2023-03-15T17:43:28.903Z,99517.25
2023-03-15T17:47:32.527Z,99530.97
2023-03-15T17:51:38.291Z,99522.13
2023-03-15T17:55:42.926Z,99539.06
2023-03-15T17:59:46.042Z,99535.00
2023-03-15T18:03:49.176Z,99545.88
2023-03-15T18:07:58.936Z,99530.94
2023-03-15T18:12:04.687Z,99530.09
2023-03-15T18:16:08.574Z,99542.34
2023-03-15T18:20:16.106Z,99552.88
2023-03-15T18:24:19.885Z,99550.25
2023-03-15T18:28:24.806Z,99564.19
2023-03-15T18:32:28.415Z,99562.44
2023-03-15T18:36:31.702Z,99554.06
2023-03-15T18:40:39.133Z,99554.63
2023-03-15T18:44:44.318Z,99548.09
2023-03-15T18:48:47.543Z,99571.38
2023-03-15T18:52:51.410Z,99568.72
2023-03-15T18:56:54.316Z,99577.25
2023-03-15T19:00:59.373Z,99557.06
2023-03-15T19:05:02.238Z,99568.97
2023-03-15T19:09:05.772Z,99561.75
2023-03-15T19:13:09.069Z,99561.31
2023-03-15T19:17:13.811Z,99566.94
2023-03-15T19:21:21.297Z,99566.00
2023-03-15T19:25:24.969Z,99579.03
2023-03-15T19:29:27.822Z,99581.63
2023-03-15T19:33:32.616Z,99570.63
2023-03-15T19:37:39.034Z,99581.47
2023-03-15T19:41:43.010Z,99581.75
2023-03-15T19:45:49.835Z,99584.47
2023-03-15T19:49:55.145Z,99586.16
2023-03-15T19:53:59.300Z,99578.72
2023-03-15T19:58:03.377Z,99579.31
2023-03-15T20:02:06.171Z,99589.13
2023-03-15T20:06:14.659Z,99586.84
2023-03-15T20:10:19.453Z,99594.97
2023-03-15T20:14:23.358Z,99583.56
2023-03-15T20:18:28.475Z,99594.81
2023-03-15T20:22:33.188Z,99593.03
2023-03-15T20:26:40.335Z,99605.38
2023-03-15T20:30:44.737Z,99605.16
2023-03-15T20:34:48.117Z,99598.25
2023-03-15T20:38:53.715Z,99603.66
2023-03-15T20:42:57.136Z,99604.00
2023-03-15T20:47:01.184Z,99604.72
2023-03-15T20:51:05.125Z,99606.25
2023-03-15T20:55:11.240Z,99607.06
2023-03-15T20:59:15.029Z,99602.19
2023-03-15T21:03:19.812Z,99588.69
2023-03-15T21:07:22.884Z,99587.00
2023-03-15T21:11:27.512Z,99586.03
2023-03-15T21:15:31.401Z,99595.84
2023-03-15T21:19:35.649Z,99604.47
2023-03-15T21:23:39.424Z,99596.34
2023-03-15T21:27:44.203Z,99603.81
2023-03-15T21:31:53.450Z,99602.91
2023-03-15T21:35:59.241Z,99603.03
2023-03-15T21:40:03.009Z,99581.59
2023-03-15T21:44:08.287Z,99601.63
2023-03-15T21:48:11.683Z,99605.75
2023-03-15T21:52:16.416Z,99615.63
2023-03-15T21:56:19.967Z,99607.72
2023-03-15T22:00:26.185Z,99605.16
2023-03-15T22:04:34.281Z,99598.59
2023-03-15T22:08:40.865Z,99599.19
2023-03-15T22:12:44.242Z,99599.88
2023-03-15T22:16:49.118Z,99601.91
2023-03-15T22:20:55.786Z,99588.97
2023-03-15T22:24:58.895Z,99591.53
2023-03-15T22:29:02.181Z,99586.16
2023-03-15T22:33:07.341Z,99591.59
2023-03-15T22:37:13.336Z,99596.63
2023-03-15T22:41:16.224Z,99589.31
2023-03-15T22:45:19.773Z,99594.56
2023-03-15T22:49:25.454Z,99578.31
2023-03-15T22:53:32.689Z,99579.38
2023-03-15T22:57:35.991Z,99588.72
2023-03-15T23:01:39.188Z,99584.88
2023-03-15T23:05:46.182Z,99577.72
2023-03-15T23:09:49.593Z,99578.06
2023-03-15T23:13:55.942Z,99577.00
2023-03-15T23:17:58.956Z,99579.88
2023-03-15T23:22:05.929Z,99580.31
2023-03-15T23:26:09.736Z,99581.97
2023-03-15T23:30:14.143Z,99584.06
2023-03-15T23:34:18.411Z,99584.72
2023-03-15T23:38:23.822Z,99589.06
2023-03-15T23:42:28.239Z,99564.88
2023-03-15T23:46:36.327Z,99589.06
2023-03-15T23:50:40.316Z,99596.69
2023-03-15T23:54:45.453Z,99592.28
2023-03-15T23:58:48.706Z,99595.28
